Time;durP1;ratioP1;P1;durP2;ratioP2;P2;SDS_P1;SDS_P2;PMS_P1;PMS_P2;Temp;Humidity;BMP_temperature;BMP_pressure;BME280_temperature;BME280_humidity;BME280_pressure;Samples;Min_cycle;Max_cycle;Signal;HPM_P1;HPM_P2
2023/09/16 00:01:09;;;;;;;13.18;10.95;;;15.00;99.90;;;;;;5090132;28;20044;-81
2023/09/16 00:03:35;;;;;;;14.68;10.88;;;15.00;99.90;;;;;;5060933;28;20041;-81
2023/09/16 00:06:04;;;;;;;14.43;10.77;;;14.90;99.90;;;;;;5077176;28;20041;-82
2023/09/16 00:08:35;;;;;;;16.15;11.30;;;14.90;99.90;;;;;;5102125;28;20145;-80
2023/09/16 00:11:01;;;;;;;15.88;12.30;;;14.90;99.90;;;;;;5086691;28;20045;-81
2023/09/16 00:13:27;;;;;;;16.27;11.27;;;14.90;99.90;;;;;;5075269;28;20077;-81
2023/09/16 00:15:53;;;;;;;21.77;12.15;;;14.80;99.90;;;;;;5073359;28;20056;-81
2023/09/16 00:18:19;;;;;;;17.40;11.43;;;14.80;99.90;;;;;;5084483;28;20036;-81
2023/09/16 00:20:50;;;;;;;18.40;12.07;;;14.70;99.90;;;;;;5070650;28;20059;-80
2023/09/16 00:23:16;;;;;;;14.77;12.00;;;14.70;99.90;;;;;;5085624;28;20440;-82
2023/09/16 00:25:47;;;;;;;17.70;11.80;;;14.70;99.90;;;;;;5075479;28;20048;-82
2023/09/16 00:28:16;;;;;;;15.18;12.65;;;14.70;99.90;;;;;;5084212;28;20092;-82
2023/09/16 00:30:45;;;;;;;17.33;12.07;;;14.60;99.90;;;;;;5108719;28;20027;-80
2023/09/16 00:33:11;;;;;;;19.00;12.48;;;14.60;99.90;;;;;;5095482;28;20072;-82
2023/09/16 00:35:36;;;;;;;14.68;12.82;;;14.60;99.90;;;;;;5076368;28;20037;-80
2023/09/16 00:38:02;;;;;;;19.70;12.82;;;14.60;99.90;;;;;;5077326;28;20137;-82
2023/09/16 00:40:31;;;;;;;16.70;11.60;;;14.50;99.90;;;;;;5072845;28;20052;-82
2023/09/16 00:42:57;;;;;;;17.05;12.40;;;14.50;99.90;;;;;;5083502;28;20045;-80
2023/09/16 00:45:22;;;;;;;17.98;12.35;;;14.50;99.90;;;;;;5086364;28;20064;-83
2023/09/16 00:47:51;;;;;;;13.68;11.65;;;14.40;99.90;;;;;;5088462;28;20049;-81
2023/09/16 00:50:21;;;;;;;17.02;12.32;;;14.40;99.90;;;;;;5084297;28;20043;-82
2023/09/16 00:52:59;;;;;;;17.25;13.32;;;14.40;99.90;;;;;;5082341;28;20047;-81
2023/09/16 00:55:26;;;;;;;18.92;14.07;;;14.40;99.90;;;;;;5117024;28;20147;-80
2023/09/16 00:57:53;;;;;;;19.15;13.32;;;14.30;99.90;;;;;;5099781;28;20044;-81
2023/09/16 01:00:20;;;;;;;17.13;12.87;;;14.30;99.90;;;;;;5064694;28;20040;-81
2023/09/16 01:02:46;;;;;;;19.45;12.80;;;14.20;99.90;;;;;;5094038;28;20079;-82
2023/09/16 01:05:15;;;;;;;16.27;13.48;;;14.30;99.90;;;;;;5100570;28;20139;-81
2023/09/16 01:07:47;;;;;;;;;;;14.30;99.90;;;;;;5089951;28;20041;-82
2023/09/16 01:10:22;;;;;;;17.30;13.25;;;14.20;99.90;;;;;;5086937;28;19920;-81
2023/09/16 01:13:03;;;;;;;18.77;14.02;;;14.20;99.90;;;;;;5089815;28;20049;-81
2023/09/16 01:15:33;;;;;;;18.50;13.43;;;14.20;99.90;;;;;;5094269;28;20122;-81
2023/09/16 01:18:14;;;;;;;15.85;12.85;;;14.20;99.90;;;;;;5094794;28;20120;-81
2023/09/16 01:20:40;;;;;;;19.70;13.70;;;14.20;99.90;;;;;;5098319;28;20061;-82
2023/09/16 01:23:07;;;;;;;18.10;13.88;;;14.20;99.90;;;;;;5075245;28;20051;-81
2023/09/16 01:25:33;;;;;;;21.25;14.27;;;14.10;99.90;;;;;;5089535;28;20045;-81
2023/09/16 01:28:05;;;;;;;18.30;15.05;;;14.10;99.90;;;;;;5088954;28;20130;-81
2023/09/16 01:30:35;;;;;;;16.25;14.55;;;14.10;99.90;;;;;;5061268;28;20068;-80
2023/09/16 01:33:22;;;;;;;17.55;14.73;;;14.10;99.90;;;;;;5077906;28;20056;-82
2023/09/16 01:35:53;;;;;;;16.92;13.90;;;14.10;99.90;;;;;;5094483;28;20041;-81
2023/09/16 01:38:23;;;;;;;21.40;16.20;;;14.20;99.90;;;;;;5090779;28;20056;-81
2023/09/16 01:40:51;;;;;;;19.90;15.65;;;14.10;99.90;;;;;;5073726;28;20047;-82
2023/09/16 01:43:19;;;;;;;19.33;14.68;;;14.00;99.90;;;;;;5077190;28;20044;-81
2023/09/16 01:45:46;;;;;;;21.63;15.00;;;14.00;99.90;;;;;;5078623;28;20060;-81
2023/09/16 01:48:16;;;;;;;18.80;15.27;;;14.00;99.90;;;;;;5076944;28;20116;-81
2023/09/16 01:50:44;;;;;;;19.58;15.75;;;14.00;99.90;;;;;;5097240;28;20080;-81
2023/09/16 01:53:10;;;;;;;15.80;12.55;;;14.00;99.90;;;;;;5079600;28;20104;-81
2023/09/16 01:55:37;;;;;;;18.67;16.35;;;14.00;99.90;;;;;;5078039;28;20064;-80
2023/09/16 01:58:04;;;;;;;23.70;17.27;;;14.00;99.90;;;;;;5064479;28;20033;-81
2023/09/16 02:00:30;;;;;;;19.43;15.70;;;14.00;99.90;;;;;;5085847;28;20040;-80
2023/09/16 02:02:56;;;;;;;20.02;16.23;;;14.20;99.90;;;;;;5062576;28;20123;-80
2023/09/16 02:05:22;;;;;;;18.48;15.43;;;14.00;99.90;;;;;;5064265;28;20071;-81
2023/09/16 02:07:48;;;;;;;20.52;17.25;;;14.00;99.90;;;;;;5068302;28;20037;-81
2023/09/16 02:10:15;;;;;;;22.75;17.40;;;13.90;99.90;;;;;;5086928;28;20049;-81
2023/09/16 02:12:41;;;;;;;23.23;18.02;;;13.90;99.90;;;;;;5072134;28;20546;-82
2023/09/16 02:15:13;;;;;;;23.20;17.92;;;13.90;99.90;;;;;;5089176;28;20048;-80
2023/09/16 02:17:39;;;;;;;20.75;17.40;;;13.90;99.90;;;;;;5078380;28;20041;-81
2023/09/16 02:20:08;;;;;;;20.08;16.25;;;13.90;99.90;;;;;;5100628;28;20114;-81
2023/09/16 02:22:34;;;;;;;20.98;15.85;;;13.90;99.90;;;;;;5101409;28;20056;-81
2023/09/16 02:25:00;;;;;;;20.77;16.38;;;13.90;99.90;;;;;;5076998;28;20457;-81
2023/09/16 02:27:25;;;;;;;22.80;17.45;;;13.80;99.90;;;;;;5063285;28;20080;-81
2023/09/16 02:29:51;;;;;;;21.45;17.23;;;13.80;99.90;;;;;;5056059;28;20044;-81
2023/09/16 02:32:19;;;;;;;19.58;16.20;;;13.80;99.90;;;;;;5071361;28;20066;-80
2023/09/16 02:34:44;;;;;;;20.00;16.27;;;13.80;99.90;;;;;;5072050;28;20052;-81
2023/09/16 02:37:10;;;;;;;21.92;16.23;;;13.70;99.90;;;;;;5085104;28;20051;-82
2023/09/16 02:39:40;;;;;;;20.80;16.63;;;13.70;99.90;;;;;;5078626;28;20052;-82
2023/09/16 02:42:06;;;;;;;20.33;16.17;;;14.10;99.90;;;;;;5089699;28;20044;-81
2023/09/16 02:44:32;;;;;;;23.33;16.23;;;13.70;99.90;;;;;;5068089;28;20040;-80
2023/09/16 02:46:57;;;;;;;23.00;18.25;;;13.60;99.90;;;;;;5082396;28;20041;-81
2023/09/16 02:49:29;;;;;;;20.00;17.33;;;13.60;99.90;;;;;;5075270;28;20032;-81
2023/09/16 02:51:54;;;;;;;21.80;18.23;;;13.70;99.90;;;;;;5072557;28;20471;-81
2023/09/16 02:54:20;;;;;;;25.17;18.75;;;13.60;99.90;;;;;;5100614;28;20068;-82
2023/09/16 02:56:46;;;;;;;20.92;17.98;;;13.70;99.90;;;;;;5061977;28;20041;-80
2023/09/16 02:59:11;;;;;;;27.63;17.63;;;13.60;99.90;;;;;;5065342;28;20126;-82
2023/09/16 03:01:37;;;;;;;22.40;17.20;;;13.60;99.90;;;;;;5074303;28;20053;-80
2023/09/16 03:04:03;;;;;;;21.13;16.83;;;13.60;99.90;;;;;;5120431;28;20031;-81
2023/09/16 03:06:28;;;;;;;24.08;19.52;;;13.60;99.90;;;;;;5094798;28;20021;-83
2023/09/16 03:08:59;;;;;;;20.58;18.38;;;13.60;99.90;;;;;;5111124;28;20124;-79
2023/09/16 03:11:25;;;;;;;21.70;15.82;;;13.60;99.90;;;;;;5103619;28;20055;-82
2023/09/16 03:13:51;;;;;;;22.80;19.42;;;13.60;99.90;;;;;;5127411;28;20024;-79
2023/09/16 03:16:22;;;;;;;23.25;18.98;;;14.20;99.90;;;;;;5089213;28;20035;-80
2023/09/16 03:18:50;;;;;;;24.77;18.85;;;13.50;99.90;;;;;;5091057;28;20037;-81
2023/09/16 03:21:16;;;;;;;22.20;18.25;;;13.50;99.90;;;;;;5084763;28;20084;-80
2023/09/16 03:23:43;;;;;;;22.38;19.25;;;13.40;99.90;;;;;;5072288;28;20048;-82
2023/09/16 03:26:09;;;;;;;22.30;18.75;;;13.40;99.90;;;;;;5083691;28;20045;-81
2023/09/16 03:28:35;;;;;;;25.08;20.58;;;13.40;99.90;;;;;;5087097;28;20032;-79
2023/09/16 03:31:01;;;;;;;21.27;17.63;;;13.40;99.90;;;;;;5083653;28;20041;-81
2023/09/16 03:33:27;;;;;;;22.10;17.98;;;13.40;99.90;;;;;;5080056;28;20058;-82
2023/09/16 03:35:53;;;;;;;22.85;19.48;;;13.40;99.90;;;;;;5089909;28;20487;-82
2023/09/16 03:38:19;;;;;;;21.73;18.58;;;13.40;99.90;;;;;;5085249;28;20028;-82
2023/09/16 03:40:45;;;;;;;22.83;18.88;;;13.40;99.90;;;;;;5088988;28;20047;-80
2023/09/16 03:43:11;;;;;;;21.70;18.45;;;13.70;99.90;;;;;;5089311;28;20032;-80
2023/09/16 03:45:36;;;;;;;24.30;20.08;;;13.20;99.90;;;;;;5083753;28;20025;-81
2023/09/16 03:48:02;;;;;;;23.13;19.52;;;13.30;99.90;;;;;;5084989;28;20036;-80
2023/09/16 03:50:28;;;;;;;26.42;20.75;;;13.30;99.90;;;;;;5078729;28;20049;-80
2023/09/16 03:52:54;;;;;;;27.38;21.77;;;13.40;99.90;;;;;;5083083;28;20044;-82
2023/09/16 03:55:20;;;;;;;23.25;19.52;;;13.30;99.90;;;;;;5083468;28;20050;-81
2023/09/16 03:57:46;;;;;;;26.90;20.33;;;13.30;99.90;;;;;;5120896;28;20048;-82
2023/09/16 04:00:12;;;;;;;22.17;19.77;;;13.20;99.90;;;;;;5084936;28;20045;-80
2023/09/16 04:02:38;;;;;;;24.13;20.10;;;13.30;99.90;;;;;;5080517;28;20045;-80
2023/09/16 04:05:06;;;;;;;25.13;20.15;;;13.40;99.90;;;;;;5080301;28;20051;-80
2023/09/16 04:07:32;;;;;;;23.58;20.20;;;13.20;99.90;;;;;;5085790;28;20040;-81
2023/09/16 04:09:58;;;;;;;28.50;22.67;;;13.20;99.90;;;;;;5116814;28;20047;-81
2023/09/16 04:12:23;;;;;;;25.92;21.13;;;13.20;99.90;;;;;;5092100;28;20053;-80
2023/09/16 04:14:50;;;;;;;29.88;21.67;;;13.10;99.90;;;;;;5092974;28;20048;-81
2023/09/16 04:17:15;;;;;;;27.50;21.88;;;13.10;99.90;;;;;;5085048;28;20037;-81
2023/09/16 04:19:41;;;;;;;24.55;21.00;;;13.20;99.90;;;;;;5077366;28;20052;-80
2023/09/16 04:22:07;;;;;;;26.35;21.02;;;13.20;99.90;;;;;;5082590;28;20052;-80
2023/09/16 04:24:32;;;;;;;26.08;20.77;;;13.20;99.90;;;;;;5092569;28;20129;-80
2023/09/16 04:26:58;;;;;;;25.50;21.48;;;13.10;99.90;;;;;;5090761;28;20045;-81
2023/09/16 04:29:24;;;;;;;25.50;21.08;;;13.10;99.90;;;;;;5083070;28;20406;-81
2023/09/16 04:31:51;;;;;;;26.80;21.60;;;13.10;99.90;;;;;;5062212;28;20119;-82
2023/09/16 04:34:16;;;;;;;26.83;21.92;;;13.10;99.90;;;;;;5071909;28;20116;-81
2023/09/16 04:36:42;;;;;;;25.25;21.63;;;13.00;99.90;;;;;;5068652;28;20037;-81
2023/09/16 04:39:08;;;;;;;27.80;22.17;;;13.10;99.90;;;;;;5083985;28;20037;-81
2023/09/16 04:41:35;;;;;;;26.80;21.60;;;13.00;99.90;;;;;;5071131;28;20048;-80
2023/09/16 04:44:01;;;;;;;30.17;23.40;;;13.00;99.90;;;;;;5075576;28;20490;-80
2023/09/16 04:46:26;;;;;;;25.50;20.58;;;13.10;99.90;;;;;;5084624;28;20044;-80
2023/09/16 04:48:52;;;;;;;26.05;21.92;;;13.00;99.90;;;;;;5101270;28;20498;-80
2023/09/16 04:51:18;;;;;;;29.50;22.67;;;13.00;99.90;;;;;;5083677;28;20127;-80
2023/09/16 04:53:43;;;;;;;29.45;22.73;;;13.00;99.90;;;;;;5072198;28;20466;-80
2023/09/16 04:56:12;;;;;;;28.20;21.52;;;13.00;99.90;;;;;;5077236;28;20047;-80
2023/09/16 04:58:38;;;;;;;28.95;20.63;;;13.00;99.90;;;;;;5097267;28;20087;-79
2023/09/16 05:01:06;;;;;;;26.02;22.73;;;13.00;99.90;;;;;;5092663;28;20687;-80
2023/09/16 05:03:32;;;;;;;32.15;22.23;;;13.00;99.90;;;;;;5084964;28;20145;-81
2023/09/16 05:05:58;;;;;;;26.58;21.30;;;13.00;99.90;;;;;;5099674;28;20032;-79
2023/09/16 05:08:24;;;;;;;26.73;22.73;;;13.00;99.90;;;;;;5076237;28;20458;-80
2023/09/16 05:10:55;;;;;;;31.67;22.95;;;12.90;99.90;;;;;;5079597;28;20505;-80
2023/09/16 05:13:21;;;;;;;31.83;23.40;;;13.00;99.90;;;;;;5110704;27;20061;-80
2023/09/16 05:15:49;;;;;;;27.48;23.08;;;12.90;99.90;;;;;;5062257;28;20041;-80
2023/09/16 05:18:16;;;;;;;29.65;23.48;;;13.00;99.90;;;;;;5079150;28;20033;-80
2023/09/16 05:20:42;;;;;;;29.40;22.35;;;12.90;99.90;;;;;;5068714;28;20060;-80
2023/09/16 05:23:08;;;;;;;28.95;24.05;;;12.90;99.90;;;;;;5060288;28;20414;-80
2023/09/16 05:25:34;;;;;;;26.92;23.27;;;12.90;99.90;;;;;;5067467;28;20499;-81
2023/09/16 05:27:59;;;;;;;31.20;23.17;;;12.90;99.90;;;;;;5099916;28;20033;-80
2023/09/16 05:30:25;;;;;;;28.40;23.40;;;12.90;99.90;;;;;;5096715;28;20426;-81
2023/09/16 05:32:51;;;;;;;28.15;21.42;;;12.90;99.90;;;;;;5076779;28;20063;-80
2023/09/16 05:35:17;;;;;;;29.13;23.63;;;12.90;99.90;;;;;;5073251;28;20040;-81
2023/09/16 05:37:42;;;;;;;26.17;21.73;;;12.90;99.90;;;;;;5075848;28;21448;-81
2023/09/16 05:40:10;;;;;;;31.92;23.50;;;12.90;99.90;;;;;;5076596;28;20049;-79
2023/09/16 05:42:36;;;;;;;26.80;22.63;;;12.90;99.90;;;;;;5075808;28;20045;-81
2023/09/16 05:45:03;;;;;;;24.67;22.02;;;13.00;99.90;;;;;;5068285;28;20037;-80
2023/09/16 05:47:30;;;;;;;27.60;22.55;;;13.00;99.90;;;;;;5088331;28;20028;-80
2023/09/16 05:49:56;;;;;;;25.08;22.05;;;13.00;99.90;;;;;;5069885;28;20108;-80
2023/09/16 05:52:23;;;;;;;27.52;22.42;;;13.00;99.90;;;;;;5072447;28;20555;-80
2023/09/16 05:54:49;;;;;;;26.02;22.02;;;13.00;99.90;;;;;;5075280;28;20045;-80
2023/09/16 05:57:14;;;;;;;24.13;20.75;;;13.00;99.90;;;;;;5082044;28;20090;-80
2023/09/16 05:59:40;;;;;;;27.95;21.30;;;13.00;99.90;;;;;;5065734;28;20101;-80
2023/09/16 06:02:06;;;;;;;30.05;23.98;;;13.10;99.90;;;;;;5077302;28;20064;-80
2023/09/16 06:04:31;;;;;;;32.72;22.25;;;13.10;99.90;;;;;;5108912;28;20040;-80
2023/09/16 06:06:57;;;;;;;25.85;21.67;;;13.10;99.90;;;;;;5082793;28;20044;-82
2023/09/16 06:09:23;;;;;;;28.05;22.80;;;13.20;99.90;;;;;;5082913;28;20127;-81
2023/09/16 06:11:48;;;;;;;25.80;22.25;;;13.20;99.90;;;;;;5080123;28;20063;-81
2023/09/16 06:14:14;;;;;;;31.25;23.48;;;13.30;99.90;;;;;;5069621;28;20123;-81
2023/09/16 06:16:40;;;;;;;29.10;23.17;;;13.30;99.90;;;;;;5081793;28;20482;-80
2023/09/16 06:19:07;;;;;;;30.42;23.98;;;13.40;99.90;;;;;;5079703;28;20029;-81
2023/09/16 06:21:33;;;;;;;27.65;23.88;;;13.50;99.90;;;;;;5107107;28;20056;-81
2023/09/16 06:24:02;;;;;;;29.13;23.35;;;13.50;99.90;;;;;;5083611;28;20055;-81
2023/09/16 06:26:28;;;;;;;31.27;24.00;;;13.60;99.90;;;;;;5072090;28;20040;-82
2023/09/16 06:28:54;;;;;;;32.00;23.35;;;13.70;99.90;;;;;;5079415;28;20054;-80
2023/09/16 06:31:19;;;;;;;29.08;23.77;;;13.80;99.90;;;;;;5084710;28;20095;-80
2023/09/16 06:33:45;;;;;;;30.40;23.80;;;13.90;99.90;;;;;;5073091;28;20029;-81
2023/09/16 06:36:11;;;;;;;32.33;24.75;;;14.00;99.90;;;;;;5071135;28;20048;-81
2023/09/16 06:38:37;;;;;;;29.52;23.55;;;14.10;99.90;;;;;;5111722;28;20075;-80
2023/09/16 06:41:05;;;;;;;31.65;24.02;;;14.20;99.90;;;;;;5082549;28;20047;-80
2023/09/16 06:43:31;;;;;;;29.27;23.27;;;14.30;99.90;;;;;;5086677;28;20044;-81
2023/09/16 06:45:57;;;;;;;28.13;23.00;;;14.50;99.90;;;;;;5093085;28;20059;-81
2023/09/16 06:48:23;;;;;;;27.13;22.92;;;14.90;99.90;;;;;;5079620;28;20045;-81
2023/09/16 06:50:54;;;;;;;23.70;21.13;;;15.30;99.90;;;;;;5065719;28;20055;-80
2023/09/16 06:53:19;;;;;;;30.33;21.65;;;15.70;99.90;;;;;;5054081;28;20100;-80
2023/09/16 06:55:47;;;;;;;26.70;19.92;;;16.10;99.90;;;;;;5082830;28;20037;-80
2023/09/16 06:58:13;;;;;;;21.63;19.13;;;16.40;99.90;;;;;;5088946;28;20100;-78
2023/09/16 07:00:41;;;;;;;24.23;19.58;;;16.50;99.90;;;;;;5065597;28;20079;-81
2023/09/16 07:03:07;;;;;;;22.80;18.67;;;16.60;99.90;;;;;;5085882;28;20074;-79
2023/09/16 07:05:32;;;;;;;24.23;19.05;;;16.60;99.90;;;;;;5096535;28;20044;-80
2023/09/16 07:08:01;;;;;;;21.75;18.38;;;16.70;99.90;;;;;;5105169;28;20050;-78
2023/09/16 07:10:27;;;;;;;23.17;18.45;;;16.80;99.90;;;;;;5077249;28;20017;-79
2023/09/16 07:12:53;;;;;;;19.40;16.83;;;17.00;99.90;;;;;;5079924;28;20051;-80
2023/09/16 07:15:20;;;;;;;22.85;17.23;;;17.10;99.90;;;;;;5077258;28;20048;-79
2023/09/16 07:17:46;;;;;;;21.05;17.63;;;17.10;99.90;;;;;;5085345;28;20052;-79
2023/09/16 07:20:12;;;;;;;21.90;17.10;;;17.10;99.90;;;;;;5087983;28;20053;-79
2023/09/16 07:22:38;;;;;;;20.05;16.60;;;17.10;99.90;;;;;;5096077;28;20045;-82
2023/09/16 07:25:08;;;;;;;21.50;17.92;;;17.10;99.90;;;;;;5087266;28;20044;-80
2023/09/16 07:27:34;;;;;;;21.33;17.48;;;16.60;99.90;;;;;;5058509;28;20614;-81
2023/09/16 07:30:00;;;;;;;19.92;16.00;;;17.10;99.90;;;;;;5089896;28;20048;-80
2023/09/16 07:32:26;;;;;;;20.85;16.33;;;17.10;99.90;;;;;;5073650;28;20045;-80
2023/09/16 07:34:52;;;;;;;21.33;14.95;;;17.20;99.90;;;;;;5086010;28;20045;-80
2023/09/16 07:37:19;;;;;;;20.17;15.88;;;17.30;99.90;;;;;;5074155;28;20044;-81
2023/09/16 07:39:47;;;;;;;18.10;13.70;;;17.30;99.90;;;;;;5079007;28;20091;-81
2023/09/16 07:42:12;;;;;;;18.75;15.60;;;17.30;99.90;;;;;;5108135;28;20040;-80
2023/09/16 07:44:38;;;;;;;19.15;16.10;;;17.40;99.90;;;;;;5084257;28;20103;-81
2023/09/16 07:47:04;;;;;;;20.42;15.50;;;17.50;99.90;;;;;;5074414;28;20087;-82
2023/09/16 07:49:30;;;;;;;18.90;15.02;;;17.60;99.90;;;;;;5075637;28;20040;-81
2023/09/16 07:51:55;;;;;;;18.52;14.57;;;17.70;99.90;;;;;;5076961;28;20036;-81
2023/09/16 07:54:24;;;;;;;19.98;15.23;;;17.80;99.90;;;;;;5070931;28;20359;-82
2023/09/16 07:56:50;;;;;;;20.02;15.02;;;17.90;99.90;;;;;;5063490;28;20049;-81
2023/09/16 07:59:20;;;;;;;18.92;14.20;;;18.10;99.90;;;;;;5081080;28;20520;-82
2023/09/16 08:01:47;;;;;;;18.30;14.60;;;18.20;99.90;;;;;;5063387;28;20051;-80
2023/09/16 08:04:14;;;;;;;18.70;14.90;;;18.30;99.90;;;;;;5101495;28;20072;-80
2023/09/16 08:06:40;;;;;;;16.90;14.55;;;18.40;99.90;;;;;;5084030;28;20036;-82
2023/09/16 08:09:08;;;;;;;22.40;14.70;;;18.60;99.90;;;;;;5054990;28;20140;-81
2023/09/16 08:11:34;;;;;;;16.48;13.90;;;18.70;99.90;;;;;;5068881;28;20053;-81
2023/09/16 08:14:00;;;;;;;18.73;14.48;;;18.90;99.90;;;;;;5076162;28;20033;-84
2023/09/16 08:16:25;;;;;;;17.98;14.75;;;19.00;99.90;;;;;;5100258;27;20503;-81
2023/09/16 08:18:51;;;;;;;18.08;13.85;;;19.20;99.90;;;;;;5075475;28;20036;-80
2023/09/16 08:21:18;;;;;;;17.33;13.68;;;19.30;99.90;;;;;;5068055;28;20105;-80
2023/09/16 08:23:44;;;;;;;21.30;14.73;;;19.50;99.90;;;;;;5071987;28;20131;-81
2023/09/16 08:26:10;;;;;;;18.90;14.38;;;19.60;99.90;;;;;;5075214;28;20095;-80
2023/09/16 08:28:36;;;;;;;23.50;13.50;;;19.70;99.90;;;;;;5077971;28;20045;-81
2023/09/16 08:31:03;;;;;;;16.95;13.25;;;19.90;99.90;;;;;;5085309;28;20104;-81
2023/09/16 08:33:29;;;;;;;17.10;12.77;;;20.00;99.90;;;;;;5070417;28;20181;-80
2023/09/16 08:35:55;;;;;;;15.98;13.38;;;20.10;99.90;;;;;;5079384;28;20049;-79
2023/09/16 08:38:22;;;;;;;15.48;13.05;;;20.30;99.90;;;;;;5075259;28;20029;-79
2023/09/16 08:40:55;;;;;;;20.02;12.88;;;20.40;99.90;;;;;;5090266;28;20119;-80
2023/09/16 08:43:31;;;;;;;16.33;12.32;;;20.50;99.90;;;;;;5068103;28;20494;-80
2023/09/16 08:46:02;;;;;;;17.25;12.52;;;20.60;99.90;;;;;;5071785;28;20086;-79
2023/09/16 08:48:36;;;;;;;19.60;11.70;;;20.70;99.90;;;;;;5074360;28;20472;-80
2023/09/16 08:51:05;;;;;;;17.17;11.85;;;20.90;99.90;;;;;;5067069;28;20064;-80
2023/09/16 08:53:36;;;;;;;18.00;11.90;;;21.00;99.90;;;;;;5073128;28;20036;-79
2023/09/16 08:56:06;;;;;;;14.82;11.68;;;21.00;99.90;;;;;;5068105;28;20037;-78
2023/09/16 08:58:34;;;;;;;13.80;10.98;;;21.10;99.90;;;;;;5071994;28;20049;-78
2023/09/16 09:01:02;;;;;;;14.98;10.13;;;21.20;99.90;;;;;;5051860;28;20040;-79
2023/09/16 09:03:30;;;;;;;15.25;11.02;;;21.10;99.90;;;;;;5045858;28;20495;-79
2023/09/16 09:05:58;;;;;;;14.27;11.05;;;21.10;99.90;;;;;;5069815;28;20096;-79
2023/09/16 09:08:24;;;;;;;13.75;10.68;;;21.10;99.90;;;;;;5082637;28;20040;-78
2023/09/16 09:10:50;;;;;;;12.77;9.85;;;21.20;99.90;;;;;;5063821;28;20041;-78
2023/09/16 09:13:16;;;;;;;14.63;9.13;;;21.20;99.90;;;;;;5070244;28;20438;-78
2023/09/16 09:15:47;;;;;;;12.13;8.98;;;21.20;99.90;;;;;;5063573;28;20561;-78
2023/09/16 09:18:17;;;;;;;12.52;8.80;;;21.20;99.90;;;;;;5063863;28;20344;-78
2023/09/16 09:20:43;;;;;;;11.65;7.65;;;21.30;99.90;;;;;;5038602;28;20056;-79
2023/09/16 09:23:08;;;;;;;12.95;7.35;;;21.30;99.90;;;;;;5061407;28;20053;-78
2023/09/16 09:25:36;;;;;;;11.82;8.27;;;21.30;99.90;;;;;;5065508;28;20406;-78
2023/09/16 09:28:03;;;;;;;13.27;7.43;;;21.50;99.90;;;;;;5062375;28;20096;-78
2023/09/16 09:30:32;;;;;;;10.77;8.67;;;21.60;99.90;;;;;;5076695;28;20049;-79
2023/09/16 09:32:59;;;;;;;11.73;8.10;;;21.70;99.90;;;;;;5053975;28;20049;-78
2023/09/16 09:35:30;;;;;;;12.75;8.98;;;21.70;99.90;;;;;;5058147;28;20123;-76
2023/09/16 09:37:56;;;;;;;9.07;6.90;;;21.90;99.90;;;;;;5096265;27;20095;-78
2023/09/16 09:40:25;;;;;;;13.18;7.85;;;22.00;99.90;;;;;;5085579;28;20067;-78
2023/09/16 09:42:57;;;;;;;11.73;7.13;;;22.10;99.90;;;;;;5070887;28;20258;-79
2023/09/16 09:45:25;;;;;;;9.15;6.05;;;22.20;99.90;;;;;;5071046;28;20044;-78
2023/09/16 09:47:52;;;;;;;8.25;6.10;;;22.30;99.90;;;;;;5066886;28;20041;-77
2023/09/16 09:50:20;;;;;;;8.15;5.72;;;22.30;99.90;;;;;;5065655;28;20075;-78
2023/09/16 09:52:47;;;;;;;10.73;5.88;;;22.50;99.90;;;;;;5062099;28;20050;-77
2023/09/16 09:55:28;;;;;;;8.23;6.32;;;22.60;99.90;;;;;;5068449;28;20036;-78
2023/09/16 09:57:54;;;;;;;8.25;5.95;;;22.80;99.90;;;;;;5076147;28;20051;-80
2023/09/16 10:00:23;;;;;;;10.95;6.10;;;23.00;99.90;;;;;;5074891;28;20056;-78
2023/09/16 10:02:49;;;;;;;8.43;5.28;;;23.20;99.90;;;;;;5066890;28;20048;-77
2023/09/16 10:05:17;;;;;;;8.27;6.20;;;23.40;99.90;;;;;;5063260;28;20048;-77
2023/09/16 10:07:46;;;;;;;10.68;6.35;;;23.50;99.90;;;;;;5055246;28;20045;-76
2023/09/16 10:10:23;;;;;;;10.98;6.28;;;23.70;99.10;;;;;;5056351;28;20048;-78
2023/09/16 10:12:52;;;;;;;8.45;5.82;;;23.70;99.90;;;;;;5091539;28;20106;-78
2023/09/16 10:15:25;;;;;;;7.88;5.70;;;24.00;98.00;;;;;;5057589;28;20049;-78
2023/09/16 10:17:51;;;;;;;8.95;5.88;;;24.00;99.30;;;;;;5055884;28;20037;-78
2023/09/16 10:20:17;;;;;;;9.38;5.32;;;24.10;97.60;;;;;;5067102;28;20105;-77
2023/09/16 10:22:43;;;;;;;7.60;4.75;;;24.20;98.50;;;;;;5066919;28;20052;-78
2023/09/16 10:25:12;;;;;;;15.10;4.80;;;24.40;99.80;;;;;;5099079;28;20045;-78
2023/09/16 10:27:44;;;;;;;8.93;4.70;;;24.60;99.90;;;;;;5096978;28;20088;-79
2023/09/16 10:30:13;;;;;;;11.48;5.50;;;24.90;97.00;;;;;;5056023;28;20120;-77
2023/09/16 10:32:39;;;;;;;7.82;5.07;;;25.10;96.60;;;;;;5054485;28;20076;-78
2023/09/16 10:35:06;;;;;;;8.60;5.40;;;25.10;96.10;;;;;;5056113;28;20049;-78
2023/09/16 10:37:35;;;;;;;10.57;5.68;;;25.10;96.00;;;;;;5060766;28;20048;-77
2023/09/16 10:40:06;;;;;;;8.05;4.93;;;25.20;95.10;;;;;;5054712;28;20051;-78
2023/09/16 10:42:34;;;;;;;9.32;4.85;;;25.20;95.40;;;;;;5101850;28;20055;-78
2023/09/16 10:45:02;;;;;;;11.35;5.40;;;25.30;95.90;;;;;;5068549;28;20040;-78
2023/09/16 10:47:28;;;;;;;8.35;5.20;;;25.40;94.90;;;;;;5056433;28;20037;-79
2023/09/16 10:49:54;;;;;;;9.75;5.18;;;25.50;96.60;;;;;;5062225;28;20045;-77
2023/09/16 10:52:29;;;;;;;10.85;5.57;;;25.60;95.00;;;;;;5056364;28;20069;-78
2023/09/16 10:55:08;;;;;;;9.52;5.15;;;25.60;93.70;;;;;;5071685;28;20100;-78
2023/09/16 10:57:39;;;;;;;6.80;4.88;;;25.80;95.10;;;;;;5077339;28;20797;-78
2023/09/16 11:00:10;;;;;;;7.28;5.20;;;26.00;93.80;;;;;;5044183;28;20106;-77
2023/09/16 11:02:51;;;;;;;8.90;5.35;;;26.30;93.70;;;;;;5060757;28;20076;-78
2023/09/16 11:05:17;;;;;;;9.43;5.22;;;26.30;93.50;;;;;;5060945;28;20450;-78
2023/09/16 11:07:43;;;;;;;7.90;4.90;;;26.30;94.00;;;;;;5050501;28;20495;-76
2023/09/16 11:10:10;;;;;;;6.07;4.45;;;26.40;93.10;;;;;;5068754;28;20066;-78
2023/09/16 11:12:37;;;;;;;9.48;4.90;;;26.40;93.90;;;;;;5064460;28;20049;-78
2023/09/16 11:15:08;;;;;;;6.80;4.65;;;26.60;92.20;;;;;;5064251;28;20475;-76
2023/09/16 11:17:33;;;;;;;9.45;4.82;;;26.70;92.10;;;;;;5059752;28;20052;-78
2023/09/16 11:20:13;;;;;;;8.65;5.10;;;26.80;93.50;;;;;;5065191;28;20474;-77
2023/09/16 11:22:46;;;;;;;7.78;4.75;;;27.00;92.30;;;;;;5068736;28;20072;-77
2023/09/16 11:25:14;;;;;;;7.63;3.83;;;27.00;91.40;;;;;;5089498;28;20073;-78
2023/09/16 11:27:49;;;;;;;6.40;3.90;;;27.00;91.40;;;;;;5075242;28;20044;-78
2023/09/16 11:30:16;;;;;;;7.95;4.50;;;27.00;91.10;;;;;;5094884;28;20445;-77
2023/09/16 11:33:03;;;;;;;6.72;4.82;;;26.90;90.50;;;;;;5070750;28;20044;-78
2023/09/16 11:35:29;;;;;;;5.47;3.80;;;26.90;91.10;;;;;;5061581;28;20088;-78
2023/09/16 11:37:56;;;;;;;9.73;4.60;;;26.90;91.60;;;;;;5074801;28;20075;-77
2023/09/16 11:40:29;;;;;;;8.40;3.95;;;27.10;92.20;;;;;;5070253;28;20499;-78
2023/09/16 11:42:55;;;;;;;4.70;3.03;;;27.30;90.00;;;;;;5059736;28;20045;-77
2023/09/16 11:45:22;;;;;;;6.87;3.63;;;27.30;89.40;;;;;;5061645;28;20045;-78
2023/09/16 11:47:49;;;;;;;6.82;3.95;;;27.30;86.60;;;;;;5098480;28;20275;-79
2023/09/16 11:50:24;;;;;;;8.02;4.38;;;27.10;88.30;;;;;;5078244;28;20045;-77
2023/09/16 11:52:50;;;;;;;6.38;3.72;;;26.90;89.90;;;;;;5066958;28;20036;-78
2023/09/16 11:55:17;;;;;;;8.70;3.85;;;26.80;89.00;;;;;;5074056;28;20141;-78
2023/09/16 11:57:44;;;;;;;10.15;4.88;;;26.50;90.00;;;;;;5076912;28;20131;-77
2023/09/16 12:00:10;;;;;;;7.47;4.45;;;26.30;89.40;;;;;;5077160;28;20036;-78
2023/09/16 12:02:36;;;;;;;5.85;3.50;;;26.00;90.20;;;;;;5065396;28;20044;-77
2023/09/16 12:05:03;;;;;;;9.70;3.63;;;25.90;89.70;;;;;;5057993;28;20041;-78
2023/09/16 12:07:32;;;;;;;5.10;3.33;;;25.70;87.50;;;;;;5058640;28;20044;-77
2023/09/16 12:10:02;;;;;;;8.02;3.40;;;25.40;89.50;;;;;;5077564;28;20127;-78
2023/09/16 12:12:28;;;;;;;5.43;3.72;;;25.10;89.70;;;;;;5058040;28;20070;-77
2023/09/16 12:14:56;;;;;;;6.43;3.80;;;25.20;89.10;;;;;;5056558;28;20102;-77
2023/09/16 12:17:25;;;;;;;6.35;3.67;;;25.10;90.60;;;;;;5058726;28;20056;-78
2023/09/16 12:19:55;;;;;;;6.97;3.88;;;24.90;90.80;;;;;;5097018;28;20061;-78
2023/09/16 12:22:21;;;;;;;7.78;4.15;;;24.80;90.70;;;;;;5061482;28;20411;-78
2023/09/16 12:24:51;;;;;;;5.68;3.80;;;24.70;90.30;;;;;;5070103;28;20033;-78
2023/09/16 12:27:17;;;;;;;7.35;4.05;;;24.60;90.30;;;;;;5058820;28;20415;-77
2023/09/16 12:29:43;;;;;;;6.15;3.70;;;24.50;90.70;;;;;;5056101;28;20045;-78
2023/09/16 12:32:10;;;;;;;5.35;3.40;;;24.40;91.60;;;;;;5058460;28;20040;-79